createdAt,value
2018-09-04T00:00:02.121Z,17.09
2018-09-04T00:02:32.505Z,17.17
2018-09-04T00:05:02.699Z,17.14
2018-09-04T00:07:33.960Z,17.22
2018-09-04T00:10:05.654Z,17.12
2018-09-04T00:12:37.303Z,17.09
2018-09-04T00:15:07.943Z,17.14
2018-09-04T00:17:39.789Z,17.18
2018-09-04T00:20:11.233Z,17.12
2018-09-04T00:22:41.425Z,17.16
2018-09-04T00:25:13.314Z,17.17
2018-09-04T00:27:49.009Z,17.16
2018-09-04T00:30:21.293Z,17.18
2018-09-04T00:32:52.401Z,17.23
2018-09-04T00:35:25.705Z,17.27
2018-09-04T00:37:55.635Z,17.28
2018-09-04T00:40:27.196Z,17.27
2018-09-04T00:42:59.912Z,17.16
2018-09-04T00:45:33.392Z,17.12
2018-09-04T00:48:05.783Z,17.21
2018-09-04T00:50:38.479Z,17.17
2018-09-04T00:53:09.962Z,17.20
2018-09-04T00:55:43.420Z,17.27
2018-09-04T00:58:16.086Z,17.24
2018-09-04T01:00:48.335Z,17.29
2018-09-04T01:03:20.912Z,17.34
2018-09-04T01:05:52.934Z,17.33
2018-09-04T01:08:26.099Z,17.26
2018-09-04T01:10:58.267Z,17.16
2018-09-04T01:13:31.486Z,17.15
2018-09-04T01:16:02.170Z,17.26
2018-09-04T01:18:34.559Z,17.30
2018-09-04T01:21:05.195Z,17.32
2018-09-04T01:23:37.114Z,17.30
2018-09-04T01:26:08.175Z,17.36
2018-09-04T01:28:38.242Z,17.33
2018-09-04T01:31:09.907Z,16.99
2018-09-04T01:33:43.763Z,17.28
2018-09-04T01:36:14.482Z,17.28
2018-09-04T01:38:45.644Z,17.14
2018-09-04T01:41:18.165Z,17.15
2018-09-04T01:43:50.130Z,17.13
2018-09-04T01:46:22.423Z,17.07
2018-09-04T01:48:55.780Z,17.05
2018-09-04T01:51:27.530Z,17.10
2018-09-04T01:53:57.869Z,17.13
2018-09-04T01:56:28.625Z,17.19
2018-09-04T01:59:00.211Z,17.29
2018-09-04T02:01:32.414Z,17.33
2018-09-04T02:04:04.889Z,17.45
2018-09-04T02:06:36.662Z,17.41
2018-09-04T02:09:10.683Z,17.34
2018-09-04T02:11:42.919Z,17.42
2018-09-04T02:14:14.415Z,17.40
2018-09-04T02:16:45.768Z,17.44
2018-09-04T02:19:18.199Z,17.47
2018-09-04T02:21:52.877Z,17.42
2018-09-04T02:24:25.306Z,17.40
2018-09-04T02:26:57.478Z,17.36
2018-09-04T02:29:29.000Z,17.34
2018-09-04T02:31:59.458Z,17.35
2018-09-04T02:34:31.128Z,17.32
2018-09-04T02:37:02.454Z,17.27
2018-09-04T02:39:33.824Z,17.21
2018-09-04T02:42:06.562Z,17.17
2018-09-04T02:44:40.711Z,17.09
2018-09-04T02:47:14.029Z,17.03
2018-09-04T02:49:45.347Z,16.96
2018-09-04T02:52:18.233Z,16.95
2018-09-04T02:54:49.810Z,16.94
2018-09-04T02:57:21.006Z,16.96
2018-09-04T02:59:51.088Z,16.94
2018-09-04T03:02:21.687Z,17.01
2018-09-04T03:04:52.807Z,16.97
2018-09-04T03:07:27.534Z,16.94
2018-09-04T03:10:00.421Z,16.83
2018-09-04T03:12:31.551Z,16.83
2018-09-04T03:15:03.156Z,16.79
2018-09-04T03:17:33.890Z,16.85
2018-09-04T03:20:04.056Z,16.85
2018-09-04T03:22:34.202Z,16.70
2018-09-04T03:25:04.518Z,16.90
2018-09-04T03:27:35.545Z,16.93
2018-09-04T03:30:10.059Z,17.01
2018-09-04T03:32:43.546Z,16.89
2018-09-04T03:35:14.599Z,16.80
2018-09-04T03:37:44.742Z,16.78
2018-09-04T03:40:15.068Z,16.69
2018-09-04T03:42:45.013Z,16.61
2018-09-04T03:45:15.030Z,16.59
2018-09-04T03:47:45.209Z,16.58
2018-09-04T03:50:15.596Z,16.54
2018-09-04T03:52:46.655Z,16.62
2018-09-04T03:55:17.839Z,16.66
2018-09-04T03:57:48.016Z,16.73
2018-09-04T04:00:18.849Z,16.79
2018-09-04T04:02:48.904Z,16.71
2018-09-04T04:05:18.931Z,16.71
2018-09-04T04:07:51.426Z,16.71
2018-09-04T04:10:23.528Z,16.72
2018-09-04T04:12:54.833Z,16.66
2018-09-04T04:15:25.320Z,16.65
2018-09-04T04:17:56.111Z,16.62
2018-09-04T04:20:26.559Z,16.62
2018-09-04T04:22:57.320Z,16.62
2018-09-04T04:25:27.264Z,16.74
2018-09-04T04:27:57.277Z,16.79
2018-09-04T04:30:27.569Z,16.76
2018-09-04T04:32:58.278Z,16.62
2018-09-04T04:35:28.667Z,16.68
2018-09-04T04:37:58.423Z,16.67
2018-09-04T04:40:29.987Z,16.70
2018-09-04T04:43:01.109Z,16.66
2018-09-04T04:45:33.378Z,16.56
2018-09-04T04:48:03.992Z,16.48
2018-09-04T04:50:34.263Z,16.59
2018-09-04T04:53:04.281Z,16.64
2018-09-04T04:55:35.615Z,16.69
2018-09-04T04:58:06.018Z,16.76
2018-09-04T05:00:35.765Z,16.83
2018-09-04T05:03:06.312Z,16.82
2018-09-04T05:05:37.288Z,16.81
2018-09-04T05:08:07.572Z,16.83
2018-09-04T05:10:43.134Z,16.61
2018-09-04T05:13:23.321Z,16.79
2018-09-04T05:16:01.120Z,16.84
2018-09-04T05:18:34.328Z,16.71
2018-09-04T05:21:04.731Z,16.93
2018-09-04T05:23:39.159Z,16.92
2018-09-04T05:26:09.747Z,16.90
2018-09-04T05:28:40.992Z,16.95
2018-09-04T05:31:11.626Z,16.92
2018-09-04T05:33:44.354Z,16.97
2018-09-04T05:36:16.097Z,16.98
2018-09-04T05:38:45.998Z,17.11
2018-09-04T05:41:21.603Z,17.24
2018-09-04T05:43:58.087Z,17.22
2018-09-04T05:46:38.102Z,17.33
2018-09-04T05:49:08.906Z,17.41
2018-09-04T05:51:39.067Z,17.34
2018-09-04T05:54:13.450Z,17.38
2018-09-04T05:56:43.972Z,17.45
2018-09-04T05:59:14.452Z,17.53
2018-09-04T06:01:45.223Z,17.71
2018-09-04T06:04:15.381Z,17.75
2018-09-04T06:06:47.356Z,17.75
2018-09-04T06:09:17.421Z,17.75
2018-09-04T06:11:49.537Z,17.75
2018-09-04T06:14:19.354Z,17.92
2018-09-04T06:16:49.323Z,17.99
2018-09-04T06:19:21.733Z,18.05
2018-09-04T06:21:53.530Z,18.24
2018-09-04T06:24:24.462Z,18.30
2018-09-04T06:26:54.866Z,18.41
2018-09-04T06:29:25.093Z,18.46
2018-09-04T06:31:55.934Z,18.66
2018-09-04T06:34:26.772Z,18.84
2018-09-04T06:36:58.365Z,19.02
2018-09-04T06:39:30.166Z,19.21
2018-09-04T06:42:00.449Z,19.12
2018-09-04T06:44:31.176Z,19.04
2018-09-04T06:47:02.717Z,18.94
2018-09-04T06:49:33.909Z,19.01
2018-09-04T06:52:04.437Z,18.88
2018-09-04T06:54:36.032Z,19.08
2018-09-04T06:57:06.090Z,19.06
2018-09-04T07:02:07.519Z,18.91
2018-09-04T07:04:37.392Z,19.27
2018-09-04T07:07:07.366Z,19.26
2018-09-04T07:09:37.356Z,19.24
2018-09-04T07:12:07.212Z,19.12
2018-09-04T07:14:37.326Z,19.25
2018-09-04T07:17:07.879Z,19.42
2018-09-04T07:19:38.540Z,19.41
2018-09-04T07:22:09.374Z,19.38
2018-09-04T07:24:39.657Z,19.34
2018-09-04T07:27:09.723Z,19.51
2018-09-04T07:29:40.473Z,19.67
2018-09-04T07:32:11.004Z,19.95
2018-09-04T07:34:41.455Z,20.13
2018-09-04T07:37:11.295Z,20.22
2018-09-04T07:39:41.564Z,20.24
2018-09-04T07:42:11.706Z,20.30
2018-09-04T07:44:41.755Z,20.33
2018-09-04T07:47:13.228Z,20.39
2018-09-04T07:49:43.040Z,20.50
2018-09-04T07:52:13.023Z,20.60
2018-09-04T07:54:43.543Z,20.66
2018-09-04T07:57:13.861Z,20.97
2018-09-04T07:59:43.651Z,21.15
2018-09-04T08:02:14.268Z,21.12
2018-09-04T08:04:44.059Z,21.26
2018-09-04T08:07:14.527Z,21.26
2018-09-04T08:09:44.914Z,21.45
2018-09-04T08:12:14.876Z,21.52
2018-09-04T08:14:44.858Z,21.68
2018-09-04T08:17:15.318Z,21.91
2018-09-04T08:19:45.810Z,21.91
2018-09-04T08:22:15.776Z,22.15
2018-09-04T08:24:46.412Z,22.18
2018-09-04T08:27:17.304Z,22.28
2018-09-04T08:29:47.447Z,22.28
2018-09-04T08:32:18.612Z,22.34
2018-09-04T08:34:48.619Z,22.14
2018-09-04T08:37:21.322Z,22.30
2018-09-04T08:39:53.307Z,22.43
2018-09-04T08:42:24.628Z,22.68
2018-09-04T08:44:58.280Z,22.81
2018-09-04T08:47:30.189Z,22.94
2018-09-04T08:50:03.447Z,22.91
2018-09-04T08:52:34.232Z,22.85
2018-09-04T08:55:07.157Z,22.86
2018-09-04T08:57:38.264Z,23.00
2018-09-04T09:00:11.416Z,23.15
2018-09-04T09:02:41.544Z,23.20
2018-09-04T09:05:13.231Z,23.28
2018-09-04T09:07:43.259Z,23.24
2018-09-04T09:10:13.236Z,23.26
2018-09-04T09:12:44.860Z,23.09
2018-09-04T09:15:14.861Z,23.12
2018-09-04T09:17:45.238Z,23.29
2018-09-04T09:20:16.297Z,23.41
2018-09-04T09:22:46.581Z,23.40
2018-09-04T09:25:17.029Z,23.31
2018-09-04T09:27:48.024Z,23.42
2018-09-04T09:30:19.341Z,23.39
2018-09-04T09:32:50.115Z,23.55
2018-09-04T09:35:20.241Z,23.63
2018-09-04T09:37:50.999Z,23.55
2018-09-04T09:40:21.366Z,23.56
2018-09-04T09:42:52.620Z,23.57
2018-09-04T09:45:23.460Z,23.72
2018-09-04T09:47:54.180Z,23.70
2018-09-04T09:50:24.192Z,23.55
2018-09-04T09:52:54.572Z,23.62
2018-09-04T09:55:26.102Z,23.64
2018-09-04T09:57:56.153Z,23.71
2018-09-04T10:00:31.723Z,23.90
2018-09-04T10:03:06.483Z,24.04
2018-09-04T10:05:36.499Z,24.10
2018-09-04T10:08:06.916Z,24.23
2018-09-04T10:10:39.418Z,24.22
2018-09-04T10:13:09.500Z,24.15
2018-09-04T10:15:40.064Z,24.27
2018-09-04T10:18:10.895Z,24.35
2018-09-04T10:20:42.743Z,24.42
2018-09-04T10:23:14.731Z,24.53
2018-09-04T10:25:45.987Z,24.52
2018-09-04T10:28:18.285Z,24.57
2018-09-04T10:30:49.515Z,24.63
2018-09-04T10:33:19.507Z,24.86
2018-09-04T10:35:49.599Z,24.80
2018-09-04T10:38:25.118Z,24.83
2018-09-04T10:41:05.054Z,24.69
2018-09-04T10:43:36.513Z,24.72
2018-09-04T10:46:17.191Z,24.79
2018-09-04T10:48:47.975Z,25.00
2018-09-04T10:51:19.819Z,25.01
2018-09-04T10:53:50.649Z,25.18
2018-09-04T10:56:23.001Z,25.30
2018-09-04T10:58:53.868Z,25.20
2018-09-04T11:01:25.930Z,25.37
2018-09-04T11:03:58.014Z,25.42
2018-09-04T11:06:28.436Z,25.61
2018-09-04T11:09:00.509Z,25.69
2018-09-04T11:11:32.701Z,25.80
2018-09-04T11:14:04.473Z,25.85
2018-09-04T11:16:35.086Z,25.82
2018-09-04T11:19:05.155Z,25.92
2018-09-04T11:21:35.520Z,26.10
2018-09-04T11:33:14.698Z,26.15
2018-09-04T11:35:47.045Z,26.26
2018-09-04T11:38:19.776Z,26.42
2018-09-04T11:40:54.536Z,26.65
2018-09-04T11:43:27.208Z,26.76
2018-09-04T11:46:06.656Z,26.89
2018-09-04T11:48:40.448Z,26.69
2018-09-04T11:51:12.857Z,26.92
2018-09-04T11:53:43.871Z,26.82
2018-09-04T11:56:18.958Z,26.66
2018-09-04T11:58:49.334Z,26.81
2018-09-04T12:01:21.849Z,26.97
2018-09-04T12:03:53.408Z,27.20
2018-09-04T12:06:23.563Z,27.05
2018-09-04T12:08:54.900Z,27.39
2018-09-04T12:11:26.018Z,27.71
2018-09-04T12:13:56.309Z,27.84
2018-09-04T12:16:28.554Z,28.27
2018-09-04T12:19:02.081Z,28.51
2018-09-04T12:21:32.306Z,28.62
2018-09-04T12:24:02.128Z,28.51
2018-09-04T12:26:32.533Z,28.24
2018-09-04T12:29:02.952Z,28.19
2018-09-04T12:31:32.902Z,28.16
2018-09-04T12:34:03.256Z,28.31
2018-09-04T12:36:34.693Z,28.42
2018-09-04T12:39:05.930Z,28.46
2018-09-04T12:41:36.598Z,28.85
2018-09-04T12:44:07.256Z,28.83
2018-09-04T12:46:37.656Z,28.90
2018-09-04T12:49:07.859Z,28.83
2018-09-04T12:51:37.637Z,29.03
2018-09-04T12:54:08.011Z,28.99
2018-09-04T12:56:40.136Z,29.12
2018-09-04T12:59:10.131Z,29.23
2018-09-04T13:01:40.738Z,29.19
2018-09-04T13:04:11.712Z,29.02
2018-09-04T13:06:41.927Z,28.95
2018-09-04T13:09:12.454Z,28.91
2018-09-04T13:11:42.912Z,28.83
2018-09-04T13:14:16.227Z,28.81
2018-09-04T13:16:46.417Z,28.97
2018-09-04T13:19:19.579Z,29.07
2018-09-04T13:21:50.299Z,29.05
2018-09-04T13:24:21.545Z,29.13
2018-09-04T13:26:51.676Z,29.13
2018-09-04T13:29:23.665Z,29.16
2018-09-04T13:31:55.593Z,29.05
2018-09-04T13:34:26.119Z,29.14
2018-09-04T13:36:57.620Z,29.07
2018-09-04T13:39:28.903Z,29.04
2018-09-04T13:42:02.099Z,29.07
2018-09-04T13:47:13.957Z,28.99
2018-09-04T13:49:47.652Z,29.05
2018-09-04T13:52:21.587Z,29.17
2018-09-04T13:54:57.241Z,29.18
2018-09-04T13:57:35.470Z,29.29
2018-09-04T14:00:09.113Z,29.32
2018-09-04T14:02:44.636Z,29.51
2018-09-04T14:05:17.744Z,29.54
2018-09-04T14:07:48.287Z,29.67
2018-09-04T14:10:20.021Z,29.53
2018-09-04T14:12:50.380Z,29.46
2018-09-04T14:16:24.386Z,29.56
2018-09-04T14:18:56.934Z,29.80
2018-09-04T14:21:29.184Z,29.91
2018-09-04T14:24:03.805Z,30.14
2018-09-04T14:26:34.958Z,30.18
2018-09-04T14:29:10.505Z,30.22
2018-09-04T14:31:43.863Z,30.14
2018-09-04T14:34:17.136Z,29.76
2018-09-04T14:36:48.133Z,29.59
2018-09-04T14:39:33.445Z,29.50
2018-09-04T14:42:14.066Z,29.50
2018-09-04T14:44:55.682Z,29.55
2018-09-04T14:50:12.311Z,29.48
2018-09-04T14:52:43.952Z,29.59
2018-09-04T14:55:16.649Z,29.72
2018-09-04T14:57:51.109Z,29.74
2018-09-04T15:00:30.692Z,29.89
2018-09-04T15:03:13.721Z,29.96
2018-09-04T15:05:54.584Z,29.95
2018-09-04T15:08:25.764Z,30.16
2018-09-04T15:10:59.112Z,30.41
2018-09-04T15:13:33.094Z,30.55
2018-09-04T15:16:04.685Z,30.54
2018-09-04T15:18:38.357Z,30.42
2018-09-04T15:21:09.594Z,30.35
2018-09-04T15:23:42.549Z,30.33
2018-09-04T15:26:17.222Z,30.19
2018-09-04T15:28:48.047Z,30.00
2018-09-04T15:31:19.317Z,29.86
2018-09-04T15:33:49.796Z,29.79
2018-09-04T15:36:20.962Z,29.77
2018-09-04T15:38:51.113Z,29.83
2018-09-04T15:41:22.438Z,29.59
2018-09-04T15:43:53.527Z,29.14
2018-09-04T15:46:24.801Z,29.17
2018-09-04T15:49:02.791Z,29.19
2018-09-04T15:51:38.007Z,29.16
2018-09-04T15:54:11.889Z,29.24
2018-09-04T15:56:46.206Z,29.30
2018-09-04T15:59:18.191Z,29.24
2018-09-04T16:01:49.622Z,29.42
2018-09-04T16:04:21.642Z,29.65
2018-09-04T16:06:53.017Z,29.63
2018-09-04T16:09:28.489Z,29.64
2018-09-04T16:12:01.385Z,29.58
2018-09-04T16:14:32.813Z,29.56
2018-09-04T16:17:05.011Z,29.59
2018-09-04T16:19:39.575Z,29.46
2018-09-04T16:22:12.113Z,29.37
2018-09-04T16:24:44.841Z,29.22
2018-09-04T16:27:20.880Z,29.06
2018-09-04T16:29:52.089Z,29.10
2018-09-04T16:32:25.436Z,28.85
2018-09-04T16:34:56.804Z,28.67
2018-09-04T16:37:31.746Z,28.64
2018-09-04T16:40:05.413Z,28.40
2018-09-04T16:42:36.073Z,28.28
2018-09-04T16:45:12.104Z,28.29
2018-09-04T16:47:42.763Z,28.18
2018-09-04T16:50:14.637Z,28.14
2018-09-04T16:52:45.331Z,27.97
2018-09-04T16:55:17.659Z,27.89
2018-09-04T16:57:49.085Z,27.79
2018-09-04T17:00:23.264Z,27.61
2018-09-04T17:02:55.913Z,27.55
2018-09-04T17:05:28.682Z,27.39
2018-09-04T17:08:00.994Z,27.34
2018-09-04T17:10:32.000Z,27.19
2018-09-04T17:13:05.620Z,27.02
2018-09-04T17:15:37.718Z,26.85
2018-09-04T17:18:09.797Z,26.72
2018-09-04T17:20:40.747Z,26.62
2018-09-04T17:23:10.660Z,26.49
2018-09-04T17:25:40.473Z,26.32
2018-09-04T17:28:13.786Z,26.15
2018-09-04T17:30:44.026Z,26.03
2018-09-04T17:33:14.973Z,25.92
2018-09-04T17:35:45.754Z,25.77
2018-09-04T17:38:17.384Z,25.55
2018-09-04T17:40:48.554Z,25.41
2018-09-04T17:43:20.084Z,25.23
2018-09-04T17:45:50.433Z,25.01
2018-09-04T17:48:21.174Z,24.88
2018-09-04T17:50:53.238Z,24.84
2018-09-04T17:53:23.699Z,24.76
2018-09-04T17:55:54.048Z,24.61
2018-09-04T17:59:26.330Z,24.43
2018-09-04T18:01:56.574Z,24.37
2018-09-04T18:04:28.183Z,24.24
2018-09-04T18:06:59.433Z,24.14
2018-09-04T18:09:30.283Z,23.82
2018-09-04T18:12:00.651Z,23.87
2018-09-04T18:14:31.616Z,23.72
2018-09-04T18:17:03.736Z,23.63
2018-09-04T18:19:34.788Z,23.49
2018-09-04T18:22:05.369Z,23.35
2018-09-04T18:24:36.920Z,23.29
2018-09-04T18:27:09.971Z,23.21
2018-09-04T18:29:40.730Z,23.06
2018-09-04T18:32:12.211Z,22.89
2018-09-04T18:34:42.388Z,22.79
2018-09-04T18:37:13.729Z,22.71
2018-09-04T18:39:44.259Z,22.66
2018-09-04T18:42:14.261Z,22.40
2018-09-04T18:44:44.590Z,22.48
2018-09-04T18:47:14.880Z,22.42
2018-09-04T18:49:46.106Z,22.32
2018-09-04T18:52:18.302Z,22.23
2018-09-04T18:54:48.626Z,22.11
2018-09-04T18:57:21.152Z,21.98
2018-09-04T18:59:51.458Z,21.96
2018-09-04T19:02:21.905Z,21.86
2018-09-04T19:04:52.198Z,21.81
2018-09-04T19:07:24.319Z,21.72
2018-09-04T19:09:55.100Z,21.70
2018-09-04T19:12:27.455Z,21.64
2018-09-04T19:14:57.473Z,21.53
2018-09-04T19:17:30.141Z,21.48
2018-09-04T19:20:03.109Z,21.35
2018-09-04T19:22:32.957Z,21.28
2018-09-04T19:25:04.304Z,21.31
2018-09-04T19:27:34.844Z,21.23
2018-09-04T19:30:05.641Z,21.11
2018-09-04T19:32:36.025Z,21.06
2018-09-04T19:35:10.270Z,21.03
2018-09-04T19:37:43.087Z,20.94
2018-09-04T19:40:14.098Z,20.86
2018-09-04T19:42:45.015Z,20.79
2018-09-04T19:45:16.606Z,20.77
2018-09-04T19:47:46.615Z,20.76
2018-09-04T19:50:16.856Z,20.71
2018-09-04T19:52:48.153Z,20.65
2018-09-04T19:55:18.338Z,20.60
2018-09-04T19:57:48.745Z,20.60
2018-09-04T20:00:19.924Z,20.56
2018-09-04T20:02:50.545Z,20.47
2018-09-04T20:05:21.398Z,20.45
2018-09-04T20:07:54.646Z,20.45
2018-09-04T20:10:26.176Z,20.46
2018-09-04T20:12:56.464Z,20.47
2018-09-04T20:15:27.659Z,20.47
2018-09-04T20:18:00.809Z,20.49
2018-09-04T20:20:32.603Z,20.52
2018-09-04T20:23:05.964Z,20.53
2018-09-04T20:25:36.815Z,20.60
2018-09-04T20:28:08.352Z,20.60
2018-09-04T20:30:38.412Z,20.63
2018-09-04T20:33:09.046Z,20.68
2018-09-04T20:35:39.784Z,20.71
2018-09-04T20:38:12.884Z,20.69
2018-09-04T20:40:47.477Z,20.62
2018-09-04T20:43:19.153Z,20.65
2018-09-04T20:45:50.364Z,20.61
2018-09-04T20:48:22.309Z,20.56
2018-09-04T20:50:53.940Z,20.51
2018-09-04T20:53:24.857Z,20.45
2018-09-04T20:55:56.111Z,20.34
2018-09-04T20:58:38.042Z,20.26
2018-09-04T21:01:19.226Z,20.23
2018-09-04T21:04:00.342Z,20.19
2018-09-04T21:06:42.639Z,20.14
2018-09-04T21:09:23.679Z,20.06
2018-09-04T21:11:54.951Z,20.02
2018-09-04T21:14:25.835Z,20.01
2018-09-04T21:16:56.363Z,19.91
2018-09-04T21:19:26.824Z,19.81
2018-09-04T21:21:57.568Z,19.81
2018-09-04T21:24:28.871Z,19.72
2018-09-04T21:27:00.600Z,19.67
2018-09-04T21:29:31.988Z,19.62
2018-09-04T21:32:02.566Z,19.55
2018-09-04T21:34:33.752Z,19.53
2018-09-04T21:37:04.076Z,19.47
2018-09-04T21:39:35.107Z,19.44
2018-09-04T21:42:07.940Z,19.42
2018-09-04T21:44:38.218Z,19.32
2018-09-04T21:47:10.304Z,19.30
2018-09-04T21:49:40.284Z,19.27
2018-09-04T21:52:10.318Z,19.26
2018-09-04T21:54:40.277Z,19.20
2018-09-04T21:57:11.789Z,19.04
2018-09-04T21:59:41.858Z,19.10
2018-09-04T22:02:13.120Z,19.07
2018-09-04T22:04:44.049Z,19.08
2018-09-04T22:07:14.252Z,19.06
2018-09-04T22:09:45.108Z,19.07
2018-09-04T22:12:15.540Z,19.08
2018-09-04T22:14:45.390Z,19.06
2018-09-04T22:17:17.285Z,19.03
2018-09-04T22:19:47.584Z,18.99
2018-09-04T22:22:17.942Z,18.91
2018-09-04T22:24:48.248Z,18.86
2018-09-04T22:27:19.334Z,18.87
2018-09-04T22:29:49.763Z,18.73
2018-09-04T22:32:19.988Z,18.74
2018-09-04T22:34:50.046Z,18.68
2018-09-04T22:37:20.699Z,18.60
2018-09-04T22:39:50.962Z,18.64
2018-09-04T22:42:21.543Z,18.57
2018-09-04T22:44:52.957Z,18.68
2018-09-04T22:47:23.803Z,18.57
2018-09-04T22:49:59.344Z,18.53
2018-09-04T22:52:32.372Z,18.48
2018-09-04T22:55:05.336Z,18.47
2018-09-04T22:57:36.783Z,18.43
2018-09-04T23:02:36.435Z,18.35
2018-09-04T23:05:06.791Z,18.38
2018-09-04T23:07:37.921Z,18.35
2018-09-04T23:10:08.160Z,18.31
2018-09-04T23:12:38.994Z,18.25
2018-09-04T23:15:09.737Z,18.23
2018-09-04T23:17:40.035Z,18.24
2018-09-04T23:20:11.155Z,18.23
2018-09-04T23:22:41.552Z,18.21
2018-09-04T23:25:11.398Z,18.20
2018-09-04T23:27:41.713Z,18.17
2018-09-04T23:30:11.944Z,18.02
2018-09-04T23:32:42.362Z,17.95
2018-09-04T23:35:13.411Z,17.85
2018-09-04T23:37:43.192Z,17.89
2018-09-04T23:40:14.409Z,17.89
2018-09-04T23:42:44.876Z,17.82
2018-09-04T23:45:15.995Z,17.71
2018-09-04T23:47:46.181Z,17.74
2018-09-04T23:50:16.461Z,17.73
2018-09-04T23:52:46.525Z,17.77
2018-09-04T23:55:16.316Z,17.73
2018-09-04T23:57:46.515Z,17.71
